sensor_id;sensor_type;location;lat;lon;timestamp;P1;durP1;ratioP1;P2;durP2;ratioP2
13026;SDS011;6580;42.680;23.324;2022-07-29T00:00:45;10.35;;;9.35;;
13026;SDS011;6580;42.680;23.324;2022-07-29T00:03:12;10.05;;;9.20;;
13026;SDS011;6580;42.680;23.324;2022-07-29T00:05:40;9.48;;;8.68;;
13026;SDS011;6580;42.680;23.324;2022-07-29T00:08:07;9.65;;;8.85;;
13026;SDS011;6580;42.680;23.324;2022-07-29T00:10:35;9.98;;;9.18;;
13026;SDS011;6580;42.680;23.324;2022-07-29T00:15:51;9.65;;;8.85;;
13026;SDS011;6580;42.680;23.324;2022-07-29T00:18:18;10.32;;;9.43;;
13026;SDS011;6580;42.680;23.324;2022-07-29T00:20:44;10.88;;;9.85;;
13026;SDS011;6580;42.680;23.324;2022-07-29T00:23:11;10.20;;;9.35;;
13026;SDS011;6580;42.680;23.324;2022-07-29T00:25:38;9.65;;;8.75;;
13026;SDS011;6580;42.680;23.324;2022-07-29T00:28:04;10.30;;;9.40;;
13026;SDS011;6580;42.680;23.324;2022-07-29T00:30:33;9.68;;;8.88;;
13026;SDS011;6580;42.680;23.324;2022-07-29T00:32:59;8.88;;;8.18;;
13026;SDS011;6580;42.680;23.324;2022-07-29T00:35:26;9.40;;;8.63;;
13026;SDS011;6580;42.680;23.324;2022-07-29T00:38:11;9.98;;;9.00;;
13026;SDS011;6580;42.680;23.324;2022-07-29T00:40:40;10.02;;;9.20;;
13026;SDS011;6580;42.680;23.324;2022-07-29T00:43:07;10.65;;;9.75;;
13026;SDS011;6580;42.680;23.324;2022-07-29T00:45:35;9.48;;;8.73;;
13026;SDS011;6580;42.680;23.324;2022-07-29T00:48:02;10.65;;;9.75;;
13026;SDS011;6580;42.680;23.324;2022-07-29T00:50:30;10.38;;;9.27;;
13026;SDS011;6580;42.680;23.324;2022-07-29T00:52:57;10.43;;;9.52;;
13026;SDS011;6580;42.680;23.324;2022-07-29T00:55:24;9.70;;;9.00;;
13026;SDS011;6580;42.680;23.324;2022-07-29T00:57:51;12.55;;;11.45;;
13026;SDS011;6580;42.680;23.324;2022-07-29T01:00:19;13.05;;;11.85;;
13026;SDS011;6580;42.680;23.324;2022-07-29T01:02:49;13.88;;;12.57;;
13026;SDS011;6580;42.680;23.324;2022-07-29T01:05:16;14.18;;;13.00;;
13026;SDS011;6580;42.680;23.324;2022-07-29T01:07:46;13.32;;;12.15;;
13026;SDS011;6580;42.680;23.324;2022-07-29T01:10:14;13.23;;;12.07;;
13026;SDS011;6580;42.680;23.324;2022-07-29T01:12:42;13.88;;;12.65;;
13026;SDS011;6580;42.680;23.324;2022-07-29T01:15:11;14.55;;;13.23;;
13026;SDS011;6580;42.680;23.324;2022-07-29T01:17:40;13.65;;;12.38;;
13026;SDS011;6580;42.680;23.324;2022-07-29T01:20:14;16.08;;;13.40;;
13026;SDS011;6580;42.680;23.324;2022-07-29T01:22:51;14.13;;;12.88;;
13026;SDS011;6580;42.680;23.324;2022-07-29T01:28:54;13.90;;;12.70;;
13026;SDS011;6580;42.680;23.324;2022-07-29T01:31:28;14.35;;;13.15;;
13026;SDS011;6580;42.680;23.324;2022-07-29T01:34:02;12.30;;;11.30;;
13026;SDS011;6580;42.680;23.324;2022-07-29T01:36:33;15.30;;;14.00;;
13026;SDS011;6580;42.680;23.324;2022-07-29T01:39:05;14.88;;;13.50;;
13026;SDS011;6580;42.680;23.324;2022-07-29T01:41:37;14.45;;;13.25;;
13026;SDS011;6580;42.680;23.324;2022-07-29T01:44:11;14.50;;;13.18;;
13026;SDS011;6580;42.680;23.324;2022-07-29T01:46:44;13.95;;;12.85;;
13026;SDS011;6580;42.680;23.324;2022-07-29T01:49:20;13.75;;;12.65;;
13026;SDS011;6580;42.680;23.324;2022-07-29T01:51:49;13.95;;;12.65;;
13026;SDS011;6580;42.680;23.324;2022-07-29T01:54:19;14.07;;;12.80;;
13026;SDS011;6580;42.680;23.324;2022-07-29T01:56:51;14.70;;;13.43;;
13026;SDS011;6580;42.680;23.324;2022-07-29T01:59:21;14.70;;;13.30;;
13026;SDS011;6580;42.680;23.324;2022-07-29T02:01:52;14.10;;;12.80;;
13026;SDS011;6580;42.680;23.324;2022-07-29T02:04:20;13.75;;;12.55;;
13026;SDS011;6580;42.680;23.324;2022-07-29T02:06:50;13.93;;;12.55;;
13026;SDS011;6580;42.680;23.324;2022-07-29T02:09:19;14.05;;;12.80;;
13026;SDS011;6580;42.680;23.324;2022-07-29T02:11:49;14.55;;;13.18;;
13026;SDS011;6580;42.680;23.324;2022-07-29T02:14:20;14.27;;;12.90;;
13026;SDS011;6580;42.680;23.324;2022-07-29T02:16:50;14.52;;;13.23;;
13026;SDS011;6580;42.680;23.324;2022-07-29T02:19:21;14.60;;;13.30;;
13026;SDS011;6580;42.680;23.324;2022-07-29T02:21:51;13.73;;;12.63;;
13026;SDS011;6580;42.680;23.324;2022-07-29T02:24:20;14.07;;;12.82;;
13026;SDS011;6580;42.680;23.324;2022-07-29T02:26:48;14.27;;;13.05;;
13026;SDS011;6580;42.680;23.324;2022-07-29T02:29:17;14.68;;;13.38;;
13026;SDS011;6580;42.680;23.324;2022-07-29T02:31:49;14.95;;;13.68;;
13026;SDS011;6580;42.680;23.324;2022-07-29T02:34:17;14.68;;;13.27;;
13026;SDS011;6580;42.680;23.324;2022-07-29T02:36:46;13.85;;;12.70;;
13026;SDS011;6580;42.680;23.324;2022-07-29T02:39:15;14.68;;;13.43;;
13026;SDS011;6580;42.680;23.324;2022-07-29T02:41:44;14.55;;;13.25;;
13026;SDS011;6580;42.680;23.324;2022-07-29T02:44:14;15.32;;;13.90;;
13026;SDS011;6580;42.680;23.324;2022-07-29T02:46:45;15.70;;;14.40;;
13026;SDS011;6580;42.680;23.324;2022-07-29T02:49:18;14.27;;;12.98;;
13026;SDS011;6580;42.680;23.324;2022-07-29T02:52:00;14.02;;;12.63;;
13026;SDS011;6580;42.680;23.324;2022-07-29T02:54:32;13.50;;;12.40;;
13026;SDS011;6580;42.680;23.324;2022-07-29T02:57:09;13.68;;;12.45;;
13026;SDS011;6580;42.680;23.324;2022-07-29T02:59:40;15.00;;;13.50;;
13026;SDS011;6580;42.680;23.324;2022-07-29T03:02:11;13.65;;;12.45;;
13026;SDS011;6580;42.680;23.324;2022-07-29T03:04:41;13.95;;;12.57;;
13026;SDS011;6580;42.680;23.324;2022-07-29T03:07:10;14.20;;;12.85;;
13026;SDS011;6580;42.680;23.324;2022-07-29T03:09:40;13.65;;;12.35;;
13026;SDS011;6580;42.680;23.324;2022-07-29T03:12:08;14.18;;;12.88;;
13026;SDS011;6580;42.680;23.324;2022-07-29T03:14:35;15.98;;;13.02;;
13026;SDS011;6580;42.680;23.324;2022-07-29T03:17:04;14.13;;;12.82;;
13026;SDS011;6580;42.680;23.324;2022-07-29T03:19:31;14.25;;;12.18;;
13026;SDS011;6580;42.680;23.324;2022-07-29T03:22:00;13.27;;;12.07;;
13026;SDS011;6580;42.680;23.324;2022-07-29T03:24:28;13.02;;;11.85;;
13026;SDS011;6580;42.680;23.324;2022-07-29T03:26:57;11.88;;;10.82;;
13026;SDS011;6580;42.680;23.324;2022-07-29T03:29:24;12.75;;;11.48;;
13026;SDS011;6580;42.680;23.324;2022-07-29T03:31:51;11.60;;;10.40;;
13026;SDS011;6580;42.680;23.324;2022-07-29T03:34:18;11.65;;;10.65;;
13026;SDS011;6580;42.680;23.324;2022-07-29T03:36:45;12.98;;;11.88;;
13026;SDS011;6580;42.680;23.324;2022-07-29T03:39:14;11.35;;;10.18;;
13026;SDS011;6580;42.680;23.324;2022-07-29T03:41:44;11.63;;;10.60;;
13026;SDS011;6580;42.680;23.324;2022-07-29T03:44:13;12.18;;;11.07;;
13026;SDS011;6580;42.680;23.324;2022-07-29T03:46:43;11.20;;;10.25;;
13026;SDS011;6580;42.680;23.324;2022-07-29T03:49:12;11.00;;;9.82;;
13026;SDS011;6580;42.680;23.324;2022-07-29T03:51:41;10.32;;;9.40;;
13026;SDS011;6580;42.680;23.324;2022-07-29T03:54:08;10.77;;;9.73;;
13026;SDS011;6580;42.680;23.324;2022-07-29T03:56:37;11.02;;;10.02;;
13026;SDS011;6580;42.680;23.324;2022-07-29T03:59:06;11.40;;;10.32;;
13026;SDS011;6580;42.680;23.324;2022-07-29T04:01:34;10.00;;;9.10;;
13026;SDS011;6580;42.680;23.324;2022-07-29T04:04:01;10.93;;;9.90;;
13026;SDS011;6580;42.680;23.324;2022-07-29T04:06:36;10.93;;;10.02;;
13026;SDS011;6580;42.680;23.324;2022-07-29T04:09:04;10.63;;;9.65;;
13026;SDS011;6580;42.680;23.324;2022-07-29T04:11:31;10.50;;;9.50;;
13026;SDS011;6580;42.680;23.324;2022-07-29T04:13:59;11.30;;;10.13;;
13026;SDS011;6580;42.680;23.324;2022-07-29T04:16:26;12.43;;;9.35;;
13026;SDS011;6580;42.680;23.324;2022-07-29T04:18:53;10.02;;;9.13;;
13026;SDS011;6580;42.680;23.324;2022-07-29T04:21:20;10.55;;;9.50;;
13026;SDS011;6580;42.680;23.324;2022-07-29T04:23:46;10.75;;;9.85;;
13026;SDS011;6580;42.680;23.324;2022-07-29T04:26:15;10.77;;;9.85;;
13026;SDS011;6580;42.680;23.324;2022-07-29T04:28:42;11.10;;;10.20;;
13026;SDS011;6580;42.680;23.324;2022-07-29T04:31:10;11.32;;;10.30;;
13026;SDS011;6580;42.680;23.324;2022-07-29T04:33:37;11.80;;;10.02;;
13026;SDS011;6580;42.680;23.324;2022-07-29T04:36:04;11.13;;;10.23;;
13026;SDS011;6580;42.680;23.324;2022-07-29T04:38:31;11.38;;;10.35;;
13026;SDS011;6580;42.680;23.324;2022-07-29T04:40:58;11.07;;;10.00;;
13026;SDS011;6580;42.680;23.324;2022-07-29T04:43:25;10.90;;;10.00;;
13026;SDS011;6580;42.680;23.324;2022-07-29T04:45:52;11.73;;;10.57;;
13026;SDS011;6580;42.680;23.324;2022-07-29T04:48:20;10.70;;;9.65;;
13026;SDS011;6580;42.680;23.324;2022-07-29T04:50:46;12.20;;;10.98;;
13026;SDS011;6580;42.680;23.324;2022-07-29T04:53:13;11.23;;;10.27;;
13026;SDS011;6580;42.680;23.324;2022-07-29T04:55:40;11.45;;;10.32;;
13026;SDS011;6580;42.680;23.324;2022-07-29T04:58:07;10.43;;;9.52;;
13026;SDS011;6580;42.680;23.324;2022-07-29T05:00:34;11.30;;;10.30;;
13026;SDS011;6580;42.680;23.324;2022-07-29T05:03:01;11.48;;;10.18;;
13026;SDS011;6580;42.680;23.324;2022-07-29T05:05:29;10.90;;;9.48;;
13026;SDS011;6580;42.680;23.324;2022-07-29T05:07:56;11.10;;;10.10;;
13026;SDS011;6580;42.680;23.324;2022-07-29T05:10:22;10.95;;;9.95;;
13026;SDS011;6580;42.680;23.324;2022-07-29T05:12:49;11.55;;;10.13;;
13026;SDS011;6580;42.680;23.324;2022-07-29T05:15:16;10.73;;;9.73;;
13026;SDS011;6580;42.680;23.324;2022-07-29T05:17:43;10.60;;;9.40;;
13026;SDS011;6580;42.680;23.324;2022-07-29T05:20:10;9.55;;;8.85;;
13026;SDS011;6580;42.680;23.324;2022-07-29T05:22:38;9.80;;;8.80;;
13026;SDS011;6580;42.680;23.324;2022-07-29T05:25:05;9.00;;;8.30;;
13026;SDS011;6580;42.680;23.324;2022-07-29T05:27:34;9.98;;;9.05;;
13026;SDS011;6580;42.680;23.324;2022-07-29T05:30:01;9.07;;;8.20;;
13026;SDS011;6580;42.680;23.324;2022-07-29T05:32:28;9.35;;;8.57;;
13026;SDS011;6580;42.680;23.324;2022-07-29T05:34:55;8.63;;;7.72;;
13026;SDS011;6580;42.680;23.324;2022-07-29T05:37:22;8.95;;;8.15;;
13026;SDS011;6580;42.680;23.324;2022-07-29T05:39:50;8.73;;;7.05;;
13026;SDS011;6580;42.680;23.324;2022-07-29T05:42:17;7.88;;;6.47;;
13026;SDS011;6580;42.680;23.324;2022-07-29T05:44:43;7.53;;;6.60;;
13026;SDS011;6580;42.680;23.324;2022-07-29T05:47:10;7.60;;;6.90;;
13026;SDS011;6580;42.680;23.324;2022-07-29T05:49:37;9.20;;;6.90;;
13026;SDS011;6580;42.680;23.324;2022-07-29T05:52:04;8.88;;;7.05;;
13026;SDS011;6580;42.680;23.324;2022-07-29T05:54:31;7.60;;;7.00;;
13026;SDS011;6580;42.680;23.324;2022-07-29T05:56:59;9.18;;;7.38;;
13026;SDS011;6580;42.680;23.324;2022-07-29T05:59:26;7.20;;;6.50;;
13026;SDS011;6580;42.680;23.324;2022-07-29T06:01:54;6.80;;;6.25;;
13026;SDS011;6580;42.680;23.324;2022-07-29T06:04:22;6.40;;;5.90;;
13026;SDS011;6580;42.680;23.324;2022-07-29T06:06:48;8.20;;;5.80;;
13026;SDS011;6580;42.680;23.324;2022-07-29T06:09:15;6.20;;;5.57;;
13026;SDS011;6580;42.680;23.324;2022-07-29T06:11:42;6.97;;;5.40;;
13026;SDS011;6580;42.680;23.324;2022-07-29T06:14:10;8.20;;;5.72;;
13026;SDS011;6580;42.680;23.324;2022-07-29T06:16:36;7.63;;;7.03;;
13026;SDS011;6580;42.680;23.324;2022-07-29T06:19:03;7.22;;;6.53;;
13026;SDS011;6580;42.680;23.324;2022-07-29T06:21:30;6.43;;;5.88;;
13026;SDS011;6580;42.680;23.324;2022-07-29T06:23:57;7.00;;;5.72;;
13026;SDS011;6580;42.680;23.324;2022-07-29T06:26:23;6.95;;;6.20;;
13026;SDS011;6580;42.680;23.324;2022-07-29T06:28:50;6.47;;;5.97;;
13026;SDS011;6580;42.680;23.324;2022-07-29T06:31:18;5.82;;;5.20;;
13026;SDS011;6580;42.680;23.324;2022-07-29T06:33:45;6.15;;;5.55;;
13026;SDS011;6580;42.680;23.324;2022-07-29T06:36:12;6.20;;;5.68;;
13026;SDS011;6580;42.680;23.324;2022-07-29T06:38:38;6.40;;;5.80;;
13026;SDS011;6580;42.680;23.324;2022-07-29T06:41:05;6.43;;;5.82;;
13026;SDS011;6580;42.680;23.324;2022-07-29T06:43:38;6.38;;;5.75;;
13026;SDS011;6580;42.680;23.324;2022-07-29T06:46:07;6.80;;;5.47;;
13026;SDS011;6580;42.680;23.324;2022-07-29T06:48:37;5.95;;;5.45;;
13026;SDS011;6580;42.680;23.324;2022-07-29T06:51:04;5.82;;;5.25;;
13026;SDS011;6580;42.680;23.324;2022-07-29T06:53:32;5.85;;;5.05;;
13026;SDS011;6580;42.680;23.324;2022-07-29T06:55:59;5.40;;;4.97;;
13026;SDS011;6580;42.680;23.324;2022-07-29T06:58:28;6.07;;;5.47;;
13026;SDS011;6580;42.680;23.324;2022-07-29T07:00:55;9.13;;;5.70;;
13026;SDS011;6580;42.680;23.324;2022-07-29T07:03:23;6.00;;;5.40;;
13026;SDS011;6580;42.680;23.324;2022-07-29T07:05:53;6.00;;;5.38;;
13026;SDS011;6580;42.680;23.324;2022-07-29T07:08:20;5.30;;;4.82;;
13026;SDS011;6580;42.680;23.324;2022-07-29T07:10:48;5.30;;;4.90;;
13026;SDS011;6580;42.680;23.324;2022-07-29T07:13:15;5.80;;;5.22;;
13026;SDS011;6580;42.680;23.324;2022-07-29T07:15:43;5.78;;;5.22;;
13026;SDS011;6580;42.680;23.324;2022-07-29T07:18:13;5.47;;;5.05;;
13026;SDS011;6580;42.680;23.324;2022-07-29T07:20:40;5.18;;;4.63;;
13026;SDS011;6580;42.680;23.324;2022-07-29T07:23:09;5.25;;;4.85;;
13026;SDS011;6580;42.680;23.324;2022-07-29T07:25:36;6.40;;;5.13;;
13026;SDS011;6580;42.680;23.324;2022-07-29T07:28:03;5.13;;;4.72;;
13026;SDS011;6580;42.680;23.324;2022-07-29T07:30:30;5.00;;;4.60;;
13026;SDS011;6580;42.680;23.324;2022-07-29T07:32:57;5.18;;;4.70;;
13026;SDS011;6580;42.680;23.324;2022-07-29T07:35:23;5.22;;;4.72;;
13026;SDS011;6580;42.680;23.324;2022-07-29T07:37:52;5.07;;;4.43;;
13026;SDS011;6580;42.680;23.324;2022-07-29T07:40:20;6.13;;;5.63;;
13026;SDS011;6580;42.680;23.324;2022-07-29T07:42:47;5.00;;;4.60;;
13026;SDS011;6580;42.680;23.324;2022-07-29T07:45:17;4.90;;;4.35;;
13026;SDS011;6580;42.680;23.324;2022-07-29T07:47:43;5.05;;;4.65;;
13026;SDS011;6580;42.680;23.324;2022-07-29T07:50:11;4.68;;;4.20;;
13026;SDS011;6580;42.680;23.324;2022-07-29T07:52:45;4.93;;;4.38;;
13026;SDS011;6580;42.680;23.324;2022-07-29T07:55:13;5.05;;;4.65;;
13026;SDS011;6580;42.680;23.324;2022-07-29T07:57:42;6.47;;;5.70;;
13026;SDS011;6580;42.680;23.324;2022-07-29T08:00:09;5.57;;;4.70;;
13026;SDS011;6580;42.680;23.324;2022-07-29T08:02:37;3.95;;;3.75;;
13026;SDS011;6580;42.680;23.324;2022-07-29T08:05:04;4.82;;;4.20;;
13026;SDS011;6580;42.680;23.324;2022-07-29T08:07:32;4.53;;;4.13;;
13026;SDS011;6580;42.680;23.324;2022-07-29T08:09:59;4.47;;;4.07;;
13026;SDS011;6580;42.680;23.324;2022-07-29T08:12:26;4.50;;;4.20;;
13026;SDS011;6580;42.680;23.324;2022-07-29T08:14:54;4.50;;;4.20;;
13026;SDS011;6580;42.680;23.324;2022-07-29T08:17:21;5.00;;;4.50;;
13026;SDS011;6580;42.680;23.324;2022-07-29T08:19:48;5.30;;;4.30;;
13026;SDS011;6580;42.680;23.324;2022-07-29T08:22:15;4.43;;;3.90;;
13026;SDS011;6580;42.680;23.324;2022-07-29T08:24:42;4.25;;;3.97;;
13026;SDS011;6580;42.680;23.324;2022-07-29T08:27:08;4.38;;;4.03;;
13026;SDS011;6580;42.680;23.324;2022-07-29T08:29:35;4.00;;;3.70;;
13026;SDS011;6580;42.680;23.324;2022-07-29T08:32:04;3.70;;;3.45;;
13026;SDS011;6580;42.680;23.324;2022-07-29T08:34:31;4.18;;;3.80;;
13026;SDS011;6580;42.680;23.324;2022-07-29T08:36:58;4.60;;;4.22;;
13026;SDS011;6580;42.680;23.324;2022-07-29T08:39:25;5.57;;;4.32;;
13026;SDS011;6580;42.680;23.324;2022-07-29T08:41:51;5.28;;;3.45;;
13026;SDS011;6580;42.680;23.324;2022-07-29T08:44:20;3.42;;;3.20;;
13026;SDS011;6580;42.680;23.324;2022-07-29T08:46:47;3.85;;;3.55;;
13026;SDS011;6580;42.680;23.324;2022-07-29T08:49:17;3.92;;;3.63;;
13026;SDS011;6580;42.680;23.324;2022-07-29T08:51:43;3.85;;;3.45;;
13026;SDS011;6580;42.680;23.324;2022-07-29T08:54:10;3.60;;;3.30;;
13026;SDS011;6580;42.680;23.324;2022-07-29T08:56:42;3.70;;;3.50;;
13026;SDS011;6580;42.680;23.324;2022-07-29T08:59:09;3.80;;;3.50;;
13026;SDS011;6580;42.680;23.324;2022-07-29T09:01:37;4.50;;;3.60;;
13026;SDS011;6580;42.680;23.324;2022-07-29T09:04:08;4.57;;;3.58;;
13026;SDS011;6580;42.680;23.324;2022-07-29T09:06:39;4.00;;;3.70;;
13026;SDS011;6580;42.680;23.324;2022-07-29T09:09:09;4.00;;;3.60;;
13026;SDS011;6580;42.680;23.324;2022-07-29T09:11:37;8.02;;;3.60;;
13026;SDS011;6580;42.680;23.324;2022-07-29T09:14:03;3.95;;;3.65;;
13026;SDS011;6580;42.680;23.324;2022-07-29T09:16:52;3.67;;;3.40;;
13026;SDS011;6580;42.680;23.324;2022-07-29T09:19:24;4.10;;;3.78;;
13026;SDS011;6580;42.680;23.324;2022-07-29T09:21:54;3.97;;;3.67;;
13026;SDS011;6580;42.680;23.324;2022-07-29T09:24:38;4.15;;;3.75;;
13026;SDS011;6580;42.680;23.324;2022-07-29T09:29:56;4.30;;;3.17;;
13026;SDS011;6580;42.680;23.324;2022-07-29T09:32:24;4.28;;;3.90;;
13026;SDS011;6580;42.680;23.324;2022-07-29T09:34:51;4.32;;;3.92;;
13026;SDS011;6580;42.680;23.324;2022-07-29T09:37:43;5.53;;;4.00;;
13026;SDS011;6580;42.680;23.324;2022-07-29T09:40:12;4.82;;;3.92;;
13026;SDS011;6580;42.680;23.324;2022-07-29T09:42:40;4.28;;;3.97;;
13026;SDS011;6580;42.680;23.324;2022-07-29T09:45:08;4.32;;;4.00;;
13026;SDS011;6580;42.680;23.324;2022-07-29T09:47:42;4.22;;;3.67;;
13026;SDS011;6580;42.680;23.324;2022-07-29T09:50:14;4.22;;;3.92;;
13026;SDS011;6580;42.680;23.324;2022-07-29T09:52:46;4.28;;;3.92;;
13026;SDS011;6580;42.680;23.324;2022-07-29T09:55:14;4.30;;;4.00;;
13026;SDS011;6580;42.680;23.324;2022-07-29T09:57:41;4.60;;;4.20;;
13026;SDS011;6580;42.680;23.324;2022-07-29T10:00:09;3.90;;;3.60;;
13026;SDS011;6580;42.680;23.324;2022-07-29T10:02:41;4.28;;;3.95;;
13026;SDS011;6580;42.680;23.324;2022-07-29T10:05:19;4.45;;;4.13;;
13026;SDS011;6580;42.680;23.324;2022-07-29T10:07:49;5.10;;;4.25;;
13026;SDS011;6580;42.680;23.324;2022-07-29T10:10:18;4.38;;;4.07;;
13026;SDS011;6580;42.680;23.324;2022-07-29T10:12:50;4.80;;;4.47;;
13026;SDS011;6580;42.680;23.324;2022-07-29T10:15:19;4.47;;;4.18;;
13026;SDS011;6580;42.680;23.324;2022-07-29T10:17:48;4.57;;;4.28;;
13026;SDS011;6580;42.680;23.324;2022-07-29T10:20:15;4.55;;;4.15;;
13026;SDS011;6580;42.680;23.324;2022-07-29T10:22:43;5.20;;;4.20;;
13026;SDS011;6580;42.680;23.324;2022-07-29T10:25:13;4.15;;;3.75;;
13026;SDS011;6580;42.680;23.324;2022-07-29T10:27:41;4.50;;;3.67;;
13026;SDS011;6580;42.680;23.324;2022-07-29T10:30:09;4.10;;;3.80;;
13026;SDS011;6580;42.680;23.324;2022-07-29T10:32:48;3.85;;;3.55;;
13026;SDS011;6580;42.680;23.324;2022-07-29T10:35:24;3.97;;;3.67;;
13026;SDS011;6580;42.680;23.324;2022-07-29T10:38:21;4.15;;;3.75;;
13026;SDS011;6580;42.680;23.324;2022-07-29T10:41:01;4.25;;;3.85;;
13026;SDS011;6580;42.680;23.324;2022-07-29T10:43:54;4.15;;;3.72;;
13026;SDS011;6580;42.680;23.324;2022-07-29T10:46:25;4.15;;;3.80;;
13026;SDS011;6580;42.680;23.324;2022-07-29T10:49:09;3.60;;;3.40;;
13026;SDS011;6580;42.680;23.324;2022-07-29T10:51:53;4.15;;;3.80;;
13026;SDS011;6580;42.680;23.324;2022-07-29T10:54:44;4.28;;;3.97;;
13026;SDS011;6580;42.680;23.324;2022-07-29T10:57:15;4.35;;;4.00;;
13026;SDS011;6580;42.680;23.324;2022-07-29T10:59:52;4.30;;;3.90;;
13026;SDS011;6580;42.680;23.324;2022-07-29T11:02:58;4.97;;;4.03;;
13026;SDS011;6580;42.680;23.324;2022-07-29T11:05:26;4.22;;;3.92;;
13026;SDS011;6580;42.680;23.324;2022-07-29T11:10:52;3.92;;;3.63;;
13026;SDS011;6580;42.680;23.324;2022-07-29T11:13:46;4.93;;;4.40;;
13026;SDS011;6580;42.680;23.324;2022-07-29T11:16:18;4.38;;;4.03;;
13026;SDS011;6580;42.680;23.324;2022-07-29T11:21:48;4.68;;;4.28;;
13026;SDS011;6580;42.680;23.324;2022-07-29T11:24:17;7.20;;;4.78;;
13026;SDS011;6580;42.680;23.324;2022-07-29T11:26:45;4.20;;;3.92;;
13026;SDS011;6580;42.680;23.324;2022-07-29T11:29:37;4.90;;;4.25;;
13026;SDS011;6580;42.680;23.324;2022-07-29T11:32:11;4.20;;;3.88;;
13026;SDS011;6580;42.680;23.324;2022-07-29T11:34:40;4.80;;;4.10;;
13026;SDS011;6580;42.680;23.324;2022-07-29T11:40:13;4.38;;;3.97;;
13026;SDS011;6580;42.680;23.324;2022-07-29T11:42:42;4.47;;;4.07;;
13026;SDS011;6580;42.680;23.324;2022-07-29T11:45:11;5.25;;;4.75;;
13026;SDS011;6580;42.680;23.324;2022-07-29T11:47:48;4.88;;;4.57;;
13026;SDS011;6580;42.680;23.324;2022-07-29T11:50:18;5.03;;;4.63;;
13026;SDS011;6580;42.680;23.324;2022-07-29T11:52:54;5.00;;;4.10;;
13026;SDS011;6580;42.680;23.324;2022-07-29T11:55:22;4.35;;;4.10;;
13026;SDS011;6580;42.680;23.324;2022-07-29T11:57:50;4.55;;;4.15;;
13026;SDS011;6580;42.680;23.324;2022-07-29T12:03:06;4.53;;;4.20;;
13026;SDS011;6580;42.680;23.324;2022-07-29T12:05:37;4.80;;;4.50;;
13026;SDS011;6580;42.680;23.324;2022-07-29T12:08:07;4.65;;;4.35;;
13026;SDS011;6580;42.680;23.324;2022-07-29T12:10:35;4.40;;;4.10;;
13026;SDS011;6580;42.680;23.324;2022-07-29T12:13:02;6.57;;;4.70;;
13026;SDS011;6580;42.680;23.324;2022-07-29T12:15:29;5.50;;;4.65;;
13026;SDS011;6580;42.680;23.324;2022-07-29T12:17:56;5.47;;;5.07;;
13026;SDS011;6580;42.680;23.324;2022-07-29T12:20:25;5.18;;;4.78;;
13026;SDS011;6580;42.680;23.324;2022-07-29T12:22:53;5.05;;;4.65;;
13026;SDS011;6580;42.680;23.324;2022-07-29T12:25:21;5.03;;;4.60;;
13026;SDS011;6580;42.680;23.324;2022-07-29T12:27:59;5.75;;;5.25;;
13026;SDS011;6580;42.680;23.324;2022-07-29T12:30:33;5.75;;;5.25;;
13026;SDS011;6580;42.680;23.324;2022-07-29T12:33:10;5.50;;;5.00;;
13026;SDS011;6580;42.680;23.324;2022-07-29T12:35:39;5.10;;;4.70;;
13026;SDS011;6580;42.680;23.324;2022-07-29T12:38:09;5.43;;;5.03;;
13026;SDS011;6580;42.680;23.324;2022-07-29T12:40:36;5.13;;;4.72;;
13026;SDS011;6580;42.680;23.324;2022-07-29T12:43:07;5.57;;;5.05;;
13026;SDS011;6580;42.680;23.324;2022-07-29T12:45:35;5.47;;;4.97;;
13026;SDS011;6580;42.680;23.324;2022-07-29T12:48:02;6.45;;;5.30;;
13026;SDS011;6580;42.680;23.324;2022-07-29T12:50:29;5.60;;;5.10;;
13026;SDS011;6580;42.680;23.324;2022-07-29T12:53:09;6.20;;;5.18;;
13026;SDS011;6580;42.680;23.324;2022-07-29T12:55:44;7.70;;;5.72;;
13026;SDS011;6580;42.680;23.324;2022-07-29T12:58:14;5.53;;;5.05;;
13026;SDS011;6580;42.680;23.324;2022-07-29T13:00:59;5.70;;;5.20;;
13026;SDS011;6580;42.680;23.324;2022-07-29T13:03:41;6.35;;;5.75;;
13026;SDS011;6580;42.680;23.324;2022-07-29T13:09:03;6.30;;;5.80;;
13026;SDS011;6580;42.680;23.324;2022-07-29T13:11:32;5.78;;;5.28;;
13026;SDS011;6580;42.680;23.324;2022-07-29T13:14:00;5.05;;;4.75;;
13026;SDS011;6580;42.680;23.324;2022-07-29T13:16:27;5.32;;;4.88;;
13026;SDS011;6580;42.680;23.324;2022-07-29T13:19:03;5.93;;;5.43;;
13026;SDS011;6580;42.680;23.324;2022-07-29T13:21:34;5.80;;;5.40;;
13026;SDS011;6580;42.680;23.324;2022-07-29T13:24:04;5.88;;;5.47;;
13026;SDS011;6580;42.680;23.324;2022-07-29T13:26:32;5.82;;;5.32;;
13026;SDS011;6580;42.680;23.324;2022-07-29T13:28:58;5.80;;;5.40;;
13026;SDS011;6580;42.680;23.324;2022-07-29T13:31:25;5.60;;;5.20;;
13026;SDS011;6580;42.680;23.324;2022-07-29T13:33:52;5.80;;;5.30;;
13026;SDS011;6580;42.680;23.324;2022-07-29T13:36:19;5.63;;;5.15;;
13026;SDS011;6580;42.680;23.324;2022-07-29T13:38:46;5.57;;;5.18;;
13026;SDS011;6580;42.680;23.324;2022-07-29T13:41:14;5.70;;;5.18;;
13026;SDS011;6580;42.680;23.324;2022-07-29T13:43:41;6.20;;;5.68;;
13026;SDS011;6580;42.680;23.324;2022-07-29T13:46:07;6.13;;;5.63;;
13026;SDS011;6580;42.680;23.324;2022-07-29T13:48:34;5.35;;;4.93;;
13026;SDS011;6580;42.680;23.324;2022-07-29T13:51:01;5.93;;;5.32;;
13026;SDS011;6580;42.680;23.324;2022-07-29T13:53:28;5.55;;;5.15;;
13026;SDS011;6580;42.680;23.324;2022-07-29T13:55:54;5.85;;;5.38;;
13026;SDS011;6580;42.680;23.324;2022-07-29T13:58:22;6.20;;;5.55;;
13026;SDS011;6580;42.680;23.324;2022-07-29T14:00:49;5.85;;;5.30;;
13026;SDS011;6580;42.680;23.324;2022-07-29T14:03:16;5.07;;;4.68;;
13026;SDS011;6580;42.680;23.324;2022-07-29T14:05:43;5.75;;;5.22;;
13026;SDS011;6580;42.680;23.324;2022-07-29T14:08:10;5.88;;;5.38;;
13026;SDS011;6580;42.680;23.324;2022-07-29T14:10:36;5.57;;;5.22;;
13026;SDS011;6580;42.680;23.324;2022-07-29T14:13:03;5.90;;;5.40;;
13026;SDS011;6580;42.680;23.324;2022-07-29T14:15:31;5.72;;;5.25;;
13026;SDS011;6580;42.680;23.324;2022-07-29T14:17:58;5.70;;;5.20;;
13026;SDS011;6580;42.680;23.324;2022-07-29T14:20:24;5.85;;;5.38;;
13026;SDS011;6580;42.680;23.324;2022-07-29T14:22:53;6.38;;;5.78;;
13026;SDS011;6580;42.680;23.324;2022-07-29T14:25:20;5.97;;;5.43;;
13026;SDS011;6580;42.680;23.324;2022-07-29T14:27:46;5.18;;;4.88;;
13026;SDS011;6580;42.680;23.324;2022-07-29T14:30:13;5.85;;;5.35;;
13026;SDS011;6580;42.680;23.324;2022-07-29T14:32:42;5.72;;;5.25;;
13026;SDS011;6580;42.680;23.324;2022-07-29T14:35:08;7.22;;;5.45;;
13026;SDS011;6580;42.680;23.324;2022-07-29T14:37:35;7.32;;;5.47;;
13026;SDS011;6580;42.680;23.324;2022-07-29T14:40:03;5.97;;;5.47;;
13026;SDS011;6580;42.680;23.324;2022-07-29T14:42:30;5.80;;;5.30;;
13026;SDS011;6580;42.680;23.324;2022-07-29T14:44:57;5.65;;;5.18;;
13026;SDS011;6580;42.680;23.324;2022-07-29T14:47:24;5.57;;;5.07;;
13026;SDS011;6580;42.680;23.324;2022-07-29T14:49:52;5.53;;;5.13;;
13026;SDS011;6580;42.680;23.324;2022-07-29T14:52:19;5.75;;;5.25;;
13026;SDS011;6580;42.680;23.324;2022-07-29T14:54:46;5.93;;;5.38;;
13026;SDS011;6580;42.680;23.324;2022-07-29T14:57:13;5.60;;;5.20;;
13026;SDS011;6580;42.680;23.324;2022-07-29T14:59:39;6.00;;;5.50;;
13026;SDS011;6580;42.680;23.324;2022-07-29T15:02:06;5.68;;;5.28;;
13026;SDS011;6580;42.680;23.324;2022-07-29T15:04:33;5.65;;;5.25;;
13026;SDS011;6580;42.680;23.324;2022-07-29T15:07:01;6.00;;;5.45;;
13026;SDS011;6580;42.680;23.324;2022-07-29T15:09:28;5.28;;;4.80;;
13026;SDS011;6580;42.680;23.324;2022-07-29T15:11:54;5.25;;;4.85;;
13026;SDS011;6580;42.680;23.324;2022-07-29T15:14:21;5.78;;;5.40;;
13026;SDS011;6580;42.680;23.324;2022-07-29T15:16:48;6.60;;;6.07;;